Flight Track Log - Related Links

Times and Time Zones

All times are in EDT time to prevent confusion due to time zone crossing. See the UAE747 flight status page for this flight to view local times or setup timezone preferences in your user account.

Time Position Orientation Groundspeed Altitude Reporting Facility
EDT Latitude Longitude Course Direction KTS MPH feet Rate Location/Type
Wed 02:20:42 AM 25.2640 55.3520 56° Northeast 167 192 400  Level FlightAware ADS-B
Wed 02:21:12 AM 25.2720 55.3360 299° West 165 190 800 1,200 Climbing FlightAware ADS-B
Wed 02:21:42 AM 25.2860 55.3110 302° West 168 193 1,600 1,200 Climbing FlightAware ADS-B
Wed 02:22:07 AM 25.2960 55.2930 302° West 187 215 1,900 750 Climbing FlightAware ADS-B
Wed 02:22:22 AM 25.2990 55.2760 281° West 208 239 2,100 2,309 Climbing FlightAware ADS-B
Wed 02:24:00 AM 25.3797 55.1077 298° West  Level Estimated
Wed 02:25:00 AM 25.4289 55.0045 298° West  Level Estimated
Wed 02:26:00 AM 25.4781 54.9012 298° West  Level Estimated
Wed 02:27:00 AM 25.5255 54.8017 298° West  Level Estimated
Wed 02:28:00 AM 25.5762 54.6947 298° West  Level Estimated
Wed 02:28:42 AM 25.3080 54.6660 298° West 371 427 17,100  Level FlightAware ADS-B
Wed 02:29:22 AM 25.3270 54.5920 286° West 378 435 18,800 2,073 Climbing FlightAware ADS-B
Wed 02:30:32 AM 25.3580 54.4640 285° West 401 461 20,900 1,878 Climbing FlightAware ADS-B
Wed 02:31:17 AM 25.3810 54.3690 285° West 414 476 22,400 1,835 Climbing FlightAware ADS-B
Wed 02:31:57 AM 25.4000 54.2900 285° West 428 493 23,500 1,958 Climbing FlightAware ADS-B
Wed 02:32:52 AM 25.4320 54.1590 285° West 439 505 25,500 2,040 Climbing FlightAware ADS-B
Wed 02:33:37 AM 25.4540 54.0680 285° West 443 510 26,900 1,694 Climbing FlightAware ADS-B
Wed 02:34:17 AM 25.4770 53.9750 285° West 455 524 27,900 1,650 Climbing FlightAware ADS-B
Wed 02:34:57 AM 25.4980 53.8890 285° West 458 527 29,100 2,400 Climbing FlightAware ADS-B
Wed 02:35:42 AM 25.5210 53.7930 285° West 440 506 31,300 2,320 Climbing FlightAware ADS-B
Wed 02:36:12 AM 25.5370 53.7230 284° West 428 493 32,000 467 Climbing FlightAware ADS-B
Wed 02:37:12 AM 25.5630 53.6090 284° West 428 493 32,000  Level FlightAware ADS-B
Wed 02:38:02 AM 25.5910 53.4990 286° West 434 499 32,000  Level FlightAware ADS-B
Wed 02:38:37 AM 25.6060 53.4270 283° West 434 499 32,000  Level FlightAware ADS-B
Wed 02:39:27 AM 25.6350 53.3090 285° West 437 503 32,000  Level FlightAware ADS-B
Wed 02:40:07 AM 25.6730 53.2190 295° West 443 510 32,000  Level FlightAware ADS-B
Wed 02:40:47 AM 25.7110 53.1480 301° West 449 517 32,000  Level FlightAware ADS-B
Wed 02:41:32 AM 25.7520 53.0560 296° West 441 507 32,000  Level FlightAware ADS-B
Wed 02:42:22 AM 25.7850 52.9370 287° West 427 491 32,000  Level FlightAware ADS-B
Wed 02:43:37 AM 25.8080 52.7770 279° West 430 495 32,000  Level FlightAware ADS-B
Wed 02:44:32 AM 25.8240 52.6630 279° West 435 501 32,000 180 Level FlightAware ADS-B
Wed 02:45:17 AM 25.8390 52.5620 279° West 436 502 32,300 494 Climbing FlightAware ADS-B
Wed 02:45:57 AM 25.8570 52.4760 283° West 450 518 32,700 1,275 Climbing FlightAware ADS-B
Wed 02:46:37 AM 25.8890 52.3880 292° West 434 499 34,000 918 Climbing FlightAware ADS-B
Wed 02:47:22 AM 25.9320 52.2980 298° West 448 516 34,000  Level FlightAware ADS-B
Wed 02:48:02 AM 25.9710 52.2190 299° West 449 517 34,000  Level FlightAware ADS-B
Wed 02:48:42 AM 26.0110 52.1360 298° West 445 512 34,000  Level FlightAware ADS-B
Wed 02:49:27 AM 26.0530 52.0470 298° West 444 511 34,000  Level FlightAware ADS-B
Wed 02:50:07 AM 26.0930 51.9650 299° West 444 511 34,000  Level FlightAware ADS-B
Wed 02:50:52 AM 26.1330 51.8820 298° West 444 511 34,000  Level FlightAware ADS-B
Wed 02:51:32 AM 26.1730 51.7970 298° West 446 513 34,000  Level FlightAware ADS-B
Wed 02:52:07 AM 26.2060 51.7260 297° West 444 511 34,000  Level FlightAware ADS-B
Wed 02:53:27 AM 26.2800 51.5600 296° West 445 512 34,000  Level FlightAware ADS-B
Wed 02:54:07 AM 26.3180 51.4750 297° West 450 518 34,000  Level FlightAware ADS-B
Wed 02:54:47 AM 26.3560 51.3910 297° West 457 526 34,000 424 Level FlightAware ADS-B
Wed 02:55:32 AM 26.3980 51.2910 295° West 456 525 34,600 1,412 Climbing FlightAware ADS-B
Wed 02:56:12 AM 26.4310 51.2090 294° West 431 496 36,000 884 Climbing FlightAware ADS-B
Wed 02:57:07 AM 26.4760 51.0970 294° West 442 509 36,000  Level FlightAware ADS-B
Wed 02:57:47 AM 26.5090 51.0140 294° West 437 503 36,000  Level FlightAware ADS-B
Wed 02:58:32 AM 26.5460 50.9210 294° West 433 498 36,000  Level FlightAware ADS-B
Wed 02:59:12 AM 26.5740 50.8380 291° West 431 496 36,000  Level FlightAware ADS-B
Wed 02:59:57 AM 26.6080 50.7390 291° West 434 499 36,000  Level FlightAware ADS-B
Wed 03:00:42 AM 26.6370 50.6520 290° West 435 501 36,000  Level FlightAware ADS-B
Wed 03:01:27 AM 26.6640 50.5660 289° West 435 501 36,000  Level FlightAware ADS-B
Wed 03:02:07 AM 26.6980 50.4750 293° West 434 499 36,000  Level FlightAware ADS-B
Wed 03:02:52 AM 26.7310 50.3740 290° West 36,000  Level FlightAware ADS-B
Wed 03:04:07 AM 26.7550 50.2150 280° West 36,000  Level FlightAware ADS-B
Wed 03:04:47 AM 26.7530 50.1190 269° West 421 484 36,000  Level FlightAware ADS-B
Wed 03:05:22 AM 26.7510 50.0490 268° West 421 484 36,000  Level FlightAware ADS-B
Wed 03:06:12 AM 26.7480 49.9380 268° West 425 489 36,000  Level FlightAware ADS-B
Wed 03:06:57 AM 26.7440 49.8300 268° West 429 494 36,000  Level FlightAware ADS-B
Wed 03:07:37 AM 26.7420 49.7410 269° West 430 495 36,000  Level FlightAware ADS-B
Wed 03:08:17 AM 26.7390 49.6620 268° West 430 495 36,000  Level FlightAware ADS-B
Wed 03:09:02 AM 26.7360 49.5560 268° West 428 493 36,000  Level FlightAware ADS-B
Wed 03:09:42 AM 26.7330 49.4700 268° West 426 490 36,000  Level FlightAware ADS-B
Wed 03:10:27 AM 26.7290 49.3660 268° West 430 495 36,000  Level FlightAware ADS-B
Wed 03:10:57 AM 26.7270 49.3020 268° West 432 497 36,000  Level FlightAware ADS-B
Wed 03:11:52 AM 26.7230 49.1820 268° West 431 496 36,000  Level FlightAware ADS-B
Wed 03:12:27 AM 26.7200 49.1080 267° West 431 496 36,000  Level FlightAware ADS-B
Wed 03:13:12 AM 26.7160 48.9990 268° West 432 497 36,000  Level FlightAware ADS-B
Wed 03:13:57 AM 26.7120 48.8990 267° West 431 496 36,000  Level FlightAware ADS-B
Wed 03:14:37 AM 26.7090 48.8110 268° West 426 490 36,000  Level FlightAware ADS-B
Wed 03:15:22 AM 26.7050 48.7100 267° West 425 489 36,000  Level FlightAware ADS-B
Wed 03:16:02 AM 26.7020 48.6220 268° West 425 489 36,000  Level FlightAware ADS-B
Wed 03:16:42 AM 26.6980 48.5360 267° West 425 489 36,000  Level FlightAware ADS-B
Wed 03:17:27 AM 26.6940 48.4350 267° West 427 491 36,000  Level FlightAware ADS-B
Wed 03:18:07 AM 26.6910 48.3500 268° West 421 484 36,000  Level FlightAware ADS-B
Wed 03:18:52 AM 26.6860 48.2500 267° West 420 483 36,000  Level FlightAware ADS-B
Wed 03:19:32 AM 26.6830 48.1680 268° West 421 484 36,000  Level FlightAware ADS-B
Wed 03:22:00 AM 26.7238 47.8705 279° West  Level FlightAware Approximate
Wed 03:23:00 AM 26.7401 47.7498 279° West  Level FlightAware Approximate
Wed 03:23:02 AM 26.7120 47.7230 279° West 415 478 36,000  Level FlightAware ADS-B
Wed 03:23:47 AM 26.7270 47.6260 280° West 415 478 36,000  Level FlightAware ADS-B
Wed 03:24:27 AM 26.7410 47.5410 280° West 411 473 36,000  Level FlightAware ADS-B
Wed 03:25:12 AM 26.7560 47.4470 280° West 408 470 36,000  Level FlightAware ADS-B
Wed 03:25:52 AM 26.7690 47.3620 280° West 409 471 36,000  Level FlightAware ADS-B
Wed 03:26:32 AM 26.7810 47.2810 279° West 409 471 36,000  Level FlightAware ADS-B
Wed 03:27:17 AM 26.7960 47.1880 280° West 405 466 36,000  Level FlightAware ADS-B
Wed 03:27:57 AM 26.8090 47.1050 280° West 407 468 36,000  Level FlightAware ADS-B
Wed 03:28:42 AM 26.8230 47.0110 279° West 407 468 36,000  Level FlightAware ADS-B
Wed 03:29:22 AM 26.8360 46.9280 280° West 408 470 36,000  Level FlightAware ADS-B
Wed 03:30:02 AM 26.8480 46.8450 279° West 408 470 36,000  Level FlightAware ADS-B
Wed 03:30:47 AM 26.8630 46.7510 280° West 407 468 36,000  Level FlightAware ADS-B
Wed 03:31:27 AM 26.8750 46.6700 279° West 405 466 36,000  Level FlightAware ADS-B
Wed 03:32:07 AM 26.8880 46.5860 280° West 406 467 36,000  Level FlightAware ADS-B
Wed 03:32:52 AM 26.9020 46.4920 280° West 405 466 36,000  Level FlightAware ADS-B
Wed 03:33:32 AM 26.9140 46.4090 279° West 405 466 36,000  Level FlightAware ADS-B
Wed 03:34:17 AM 26.9280 46.3170 280° West 404 465 36,000  Level FlightAware ADS-B
Wed 03:34:57 AM 26.9410 46.2320 280° West 402 463 36,000  Level FlightAware ADS-B
Wed 03:35:42 AM 26.9690 46.1440 290° West 399 459 36,000  Level FlightAware ADS-B
Wed 03:36:22 AM 26.9940 46.0660 290° West 398 458 36,000  Level FlightAware ADS-B
Wed 03:37:02 AM 27.0200 45.9860 290° West 396 456 36,000  Level FlightAware ADS-B
Wed 03:37:47 AM 27.0480 45.9010 290° West 394 453 36,000  Level FlightAware ADS-B
Wed 03:38:27 AM 27.0740 45.8240 291° West 394 453 36,000  Level FlightAware ADS-B
Wed 03:39:22 AM 27.1080 45.7180 290° West 392 451 36,000  Level FlightAware ADS-B
Wed 03:40:07 AM 27.1350 45.6350 290° West 392 451 36,000  Level FlightAware ADS-B
Wed 03:40:47 AM 27.1610 45.5550 290° West 394 453 36,000  Level FlightAware ADS-B
Wed 03:41:27 AM 27.1830 45.4840 289° West 395 455 36,000  Level FlightAware ADS-B
Wed 03:42:07 AM 27.2040 45.4180 290° West 395 455 36,000  Level FlightAware ADS-B
Wed 03:42:47 AM 27.2240 45.3520 289° West 395 455 36,000 28 Level FlightAware ADS-B
Wed 03:43:37 AM 27.2670 45.2280 291° West 36,000 28 Level FlightAware ADS-B
Wed 03:46:00 AM 27.3724 44.9936 297° West  Level Estimated
Wed 03:47:00 AM 27.4165 44.8951 297° West  Level Estimated
Wed 03:48:00 AM 27.4605 44.7965 297° West  Level Estimated
Wed 03:49:00 AM 27.5045 44.6979 297° West  Level Estimated
Wed 03:50:00 AM 27.5484 44.5991 297° West  Level Estimated
Wed 03:51:00 AM 27.5922 44.5003 297° West  Level Estimated
Wed 03:52:00 AM 27.6359 44.4015 297° West  Level Estimated
Wed 03:53:00 AM 27.6796 44.3025 297° West  Level Estimated
Wed 03:54:00 AM 27.7232 44.2034 296° West  Level Estimated
Wed 03:55:00 AM 27.7668 44.1043 296° West  Level Estimated
Wed 03:56:00 AM 27.8102 44.0051 296° West  Level Estimated
Wed 03:57:00 AM 27.8536 43.9058 296° West  Level Estimated
Wed 03:58:00 AM 27.8970 43.8065 296° West  Level Estimated
Wed 03:59:00 AM 27.9402 43.7071 296° West  Level Estimated
Wed 04:00:00 AM 27.9834 43.6075 296° West  Level Estimated
Wed 04:01:00 AM 28.0265 43.5079 296° West  Level Estimated
Wed 04:02:00 AM 28.0696 43.4082 296° West  Level Estimated
Wed 04:03:00 AM 28.1126 43.3085 296° West  Level Estimated
Wed 04:04:00 AM 28.1555 43.2086 296° West  Level Estimated
Wed 04:05:00 AM 28.1983 43.1087 296° West  Level Estimated
Wed 04:06:00 AM 28.2410 43.0087 296° West  Level Estimated
Wed 04:07:00 AM 28.2837 42.9086 296° West  Level Estimated
Wed 04:08:00 AM 28.3263 42.8085 296° West  Level Estimated
Wed 04:09:00 AM 28.3689 42.7082 296° West  Level Estimated
Wed 04:10:00 AM 28.4113 42.6079 296° West  Level Estimated
Wed 04:11:00 AM 28.4537 42.5075 296° West  Level Estimated
Wed 04:12:00 AM 28.4960 42.4071 296° West  Level Estimated
Wed 04:13:00 AM 28.5383 42.3065 296° West  Level Estimated
Wed 04:14:00 AM 28.5805 42.2058 296° West  Level Estimated
Wed 04:15:00 AM 28.6225 42.1051 295° West  Level Estimated
Wed 04:16:00 AM 28.6646 42.0043 295° West  Level Estimated
Wed 04:17:00 AM 28.7065 41.9035 295° West  Level Estimated
Wed 04:18:00 AM 28.7484 41.8025 295° West  Level Estimated
Wed 04:19:00 AM 28.7902 41.7014 295° West  Level Estimated
Wed 04:20:00 AM 28.8319 41.6003 295° West  Level Estimated
Wed 04:21:00 AM 28.8735 41.4991 295° West  Level Estimated
Wed 04:22:00 AM 28.9151 41.3978 295° West  Level Estimated
Wed 04:23:00 AM 28.9566 41.2964 295° West  Level Estimated
Wed 04:24:00 AM 28.9980 41.1950 295° West  Level Estimated
Wed 04:25:00 AM 29.0393 41.0935 295° West  Level Estimated
Wed 04:26:00 AM 29.0806 40.9919 295° West  Level Estimated
Wed 04:27:00 AM 29.1218 40.8902 295° West  Level Estimated
Wed 04:28:00 AM 29.1629 40.7884 295° West  Level Estimated
Wed 04:29:00 AM 29.2039 40.6865 295° West  Level Estimated
Wed 04:30:00 AM 29.2449 40.5846 295° West  Level Estimated
Wed 04:31:00 AM 29.2858 40.4826 295° West  Level Estimated
Wed 04:32:00 AM 29.3266 40.3805 295° West  Level Estimated
Wed 04:33:00 AM 29.3673 40.2783 295° West  Level Estimated
Wed 04:34:00 AM 29.4079 40.1760 295° West  Level Estimated
Wed 04:35:00 AM 29.4485 40.0737 294° West  Level Estimated
Wed 04:36:00 AM 29.4890 39.9712 294° West  Level Estimated
Wed 04:37:00 AM 29.5294 39.8687 294° West  Level Estimated
Wed 04:38:00 AM 29.5697 39.7661 294° West  Level Estimated
Wed 04:39:00 AM 29.6100 39.6635 294° West  Level Estimated
Wed 04:40:00 AM 29.6502 39.5607 294° West  Level Estimated
Wed 04:41:00 AM 29.6902 39.4579 294° West  Level Estimated
Wed 04:42:00 AM 29.7302 39.3549 294° West  Level Estimated
Wed 04:43:00 AM 29.7702 39.2519 294° West  Level Estimated
Wed 04:44:00 AM 29.8100 39.1489 294° West  Level Estimated
Wed 04:45:00 AM 29.8498 39.0457 294° West  Level Estimated
Wed 04:46:00 AM 29.8895 38.9424 294° West  Level Estimated
Wed 04:47:00 AM 29.9291 38.8391 294° West  Level Estimated
Wed 04:48:00 AM 29.9686 38.7357 294° West  Level Estimated
Wed 04:49:00 AM 30.0081 38.6322 294° West  Level Estimated
Wed 04:50:00 AM 30.0474 38.5286 294° West  Level Estimated
Wed 04:51:00 AM 30.0867 38.4250 294° West  Level Estimated
Wed 04:52:00 AM 30.1259 38.3212 294° West  Level Estimated
Wed 04:53:00 AM 30.1651 38.2174 294° West  Level Estimated
Wed 04:53:07 AM 29.0950 37.2850 294° West 374 430 38,000  Level FlightAware ADS-B
Wed 04:53:42 AM 29.0940 37.2230 269° West 374 430 38,000  Level FlightAware ADS-B
Wed 04:54:32 AM 29.0930 37.1390 269° West 374 430 38,000  Level FlightAware ADS-B
Wed 04:55:12 AM 29.0920 37.0710 269° West 374 430 38,000  Level FlightAware ADS-B
Wed 04:55:52 AM 29.0910 37.0040 269° West 374 430 38,000  Level FlightAware ADS-B
Wed 04:56:32 AM 29.0900 36.9370 269° West 374 430 38,000  Level FlightAware ADS-B
Wed 04:57:22 AM 29.0890 36.8520 269° West 374 430 38,000  Level FlightAware ADS-B
Wed 04:58:02 AM 29.0880 36.7850 269° West 374 430 38,000  Level FlightAware ADS-B
Wed 04:58:42 AM 29.0870 36.7180 269° West 374 430 38,000  Level FlightAware ADS-B
Wed 04:59:22 AM 29.0860 36.6510 269° West 374 430 38,000  Level FlightAware ADS-B
Wed 05:00:02 AM 29.0850 36.5830 269° West 374 430 38,000  Level FlightAware ADS-B
Wed 05:00:42 AM 29.0840 36.5160 269° West 374 430 38,000  Level FlightAware ADS-B
Wed 05:01:32 AM 29.0820 36.4320 268° West 374 430 38,000  Level FlightAware ADS-B
Wed 05:02:12 AM 29.0810 36.3640 269° West 374 430 38,000  Level FlightAware ADS-B
Wed 05:02:52 AM 29.0800 36.2970 269° West 374 430 38,000 18 Level FlightAware ADS-B
Wed 05:05:00 AM 29.1728 36.0827 296° West  Level Estimated
Wed 05:06:00 AM 29.2162 35.9821 296° West  Level Estimated
Wed 05:07:00 AM 29.2595 35.8815 296° West  Level Estimated
Wed 05:08:00 AM 29.3028 35.7807 296° West  Level Estimated
Wed 05:09:00 AM 29.3459 35.6799 296° West  Level Estimated
Wed 05:10:00 AM 29.3890 35.5790 296° West  Level Estimated
Wed 05:11:00 AM 29.4320 35.4780 296° West  Level Estimated
Wed 05:12:00 AM 29.4750 35.3769 296° West  Level Estimated
Wed 05:13:00 AM 29.5178 35.2757 296° West  Level Estimated
Wed 05:14:00 AM 29.5606 35.1745 296° West  Level Estimated
Wed 05:15:00 AM 29.6033 35.0731 296° West  Level Estimated
Wed 05:16:00 AM 29.6460 34.9717 296° West  Level Estimated
Wed 05:17:00 AM 29.6885 34.8702 296° West  Level Estimated
Wed 05:18:00 AM 29.7310 34.7686 296° West  Level Estimated
Wed 05:19:00 AM 29.7734 34.6669 296° West  Level Estimated
Wed 05:20:00 AM 29.8157 34.5651 296° West  Level Estimated
Wed 05:21:00 AM 29.8580 34.4632 296° West  Level Estimated
Wed 05:22:00 AM 29.9001 34.3613 296° West  Level Estimated
Wed 05:23:00 AM 29.9422 34.2593 295° West  Level Estimated
Wed 05:24:00 AM 29.9842 34.1571 295° West  Level Estimated
Wed 05:25:00 AM 30.0261 34.0549 295° West  Level Estimated
Wed 05:26:00 AM 30.0680 33.9526 295° West  Level Estimated
Wed 05:27:00 AM 30.1098 33.8503 295° West  Level Estimated
Wed 05:28:00 AM 30.1515 33.7478 295° West  Level Estimated
Wed 05:29:00 AM 30.1931 33.6452 295° West  Level Estimated
Wed 05:30:00 AM 30.2346 33.5426 295° West  Level Estimated
Wed 05:31:00 AM 30.2761 33.4399 295° West  Level Estimated
Wed 05:32:00 AM 30.3174 33.3371 295° West  Level Estimated
Wed 05:33:00 AM 30.3587 33.2341 295° West  Level Estimated
Wed 05:34:00 AM 30.3999 33.1312 295° West  Level Estimated
Wed 05:35:00 AM 30.4410 33.0281 295° West  Level Estimated
Wed 05:36:00 AM 30.4821 32.9249 295° West  Level Estimated
Wed 05:37:00 AM 30.5231 32.8217 295° West  Level Estimated
Wed 05:38:00 AM 30.5640 32.7183 295° West  Level Estimated
Wed 05:39:00 AM 30.6048 32.6149 295° West  Level Estimated
Wed 05:40:00 AM 30.6455 32.5114 295° West  Level Estimated
Wed 05:41:00 AM 30.6861 32.4078 295° West  Level Estimated
Wed 05:42:00 AM 30.7267 32.3041 294° West  Level Estimated
Wed 05:43:00 AM 30.7672 32.2004 294° West  Level Estimated
Wed 05:44:00 AM 30.8076 32.0965 294° West  Level Estimated
Wed 05:45:00 AM 30.8479 31.9926 294° West  Level Estimated
Wed 05:46:00 AM 30.8881 31.8885 294° West  Level Estimated
Wed 05:47:00 AM 30.9282 31.7844 294° West  Level Estimated
Wed 05:48:00 AM 30.9683 31.6802 294° West  Level Estimated
Wed 05:49:00 AM 31.0083 31.5759 294° West  Level Estimated
Wed 05:50:00 AM 31.0482 31.4715 294° West  Level Estimated
Wed 05:51:00 AM 31.0880 31.3671 294° West  Level Estimated
Wed 05:52:00 AM 31.1277 31.2625 294° West  Level Estimated
Wed 05:53:00 AM 31.1673 31.1579 294° West  Level Estimated
Wed 05:54:00 AM 31.2069 31.0531 294° West  Level Estimated
Wed 05:55:00 AM 31.2463 30.9483 294° West  Level Estimated
Wed 05:56:00 AM 31.2857 30.8434 294° West  Level Estimated
Wed 05:57:00 AM 31.3256 30.7368 294° West  Level Estimated
Wed 05:58:00 AM 31.3655 30.6301 294° West  Level Estimated
Wed 05:59:00 AM 31.4052 30.5233 294° West  Level Estimated
Wed 06:00:00 AM 31.4448 30.4164 294° West  Level Estimated
Wed 06:01:00 AM 31.4844 30.3094 293° West  Level Estimated
Wed 06:02:00 AM 31.5238 30.2023 293° West  Level Estimated
Wed 06:03:00 AM 31.5632 30.0952 293° West  Level Estimated
Wed 06:04:00 AM 31.6025 29.9879 293° West  Level Estimated
Wed 06:05:00 AM 31.6417 29.8806 293° West  Level Estimated
Wed 06:06:00 AM 31.6808 29.7732 293° West  Level Estimated
Wed 06:07:00 AM 31.7198 29.6656 293° West  Level Estimated
Wed 06:08:00 AM 31.7587 29.5580 293° West  Level Estimated
Wed 06:09:00 AM 31.7976 29.4503 293° West  Level Estimated
Wed 06:10:00 AM 31.8363 29.3425 293° West  Level Estimated
Wed 06:11:00 AM 31.8749 29.2347 293° West  Level Estimated
Wed 06:12:00 AM 31.9135 29.1267 293° West  Level Estimated
Wed 06:13:00 AM 31.9520 29.0186 293° West  Level Estimated
Wed 06:14:00 AM 31.9904 28.9105 293° West  Level Estimated
Wed 06:15:00 AM 32.0286 28.8022 293° West  Level Estimated
Wed 06:16:00 AM 32.0668 28.6939 293° West  Level Estimated
Wed 06:17:00 AM 32.1049 28.5855 293° West  Level Estimated
Wed 06:18:00 AM 32.1429 28.4769 292° West  Level Estimated
Wed 06:19:00 AM 32.1809 28.3683 292° West  Level Estimated
Wed 06:20:00 AM 32.2187 28.2596 292° West  Level Estimated
Wed 06:21:00 AM 32.2564 28.1509 292° West  Level Estimated
Wed 06:22:00 AM 32.2940 28.0420 292° West  Level Estimated
Wed 06:23:00 AM 32.3316 27.9330 292° West  Level Estimated
Wed 06:24:00 AM 32.3690 27.8239 292° West  Level Estimated
Wed 06:25:00 AM 32.4064 27.7148 292° West  Level Estimated
Wed 06:26:00 AM 32.4437 27.6056 292° West  Level Estimated
Wed 06:27:00 AM 32.4808 27.4962 292° West  Level Estimated
Wed 06:28:00 AM 32.5179 27.3868 292° West  Level Estimated
Wed 06:29:00 AM 32.5549 27.2773 292° West  Level Estimated
Wed 06:30:00 AM 32.5918 27.1677 292° West  Level Estimated
Wed 06:31:00 AM 32.6286 27.0580 292° West  Level Estimated
Wed 06:32:00 AM 32.6652 26.9482 292° West  Level Estimated
Wed 06:33:00 AM 32.7018 26.8384 292° West  Level Estimated
Wed 06:34:00 AM 32.7383 26.7284 292° West  Level Estimated
Wed 06:35:00 AM 32.7747 26.6183 292° West  Level Estimated
Wed 06:36:00 AM 32.8111 26.5082 291° West  Level Estimated
Wed 06:37:00 AM 32.8473 26.3980 291° West  Level Estimated
Wed 06:38:00 AM 32.8834 26.2876 291° West  Level Estimated
Wed 06:39:00 AM 32.9194 26.1772 291° West  Level Estimated
Wed 06:40:00 AM 32.9553 26.0667 291° West  Level Estimated
Wed 06:41:00 AM 32.9911 25.9562 291° West  Level Estimated
Wed 06:42:00 AM 33.0269 25.8455 291° West  Level Estimated
Wed 06:43:00 AM 33.0625 25.7347 291° West  Level Estimated
Wed 06:44:00 AM 33.0980 25.6238 291° West  Level Estimated
Wed 06:45:00 AM 33.1335 25.5129 291° West  Level Estimated
Wed 06:46:00 AM 33.1688 25.4018 291° West  Level Estimated
Wed 06:47:00 AM 33.2040 25.2907 291° West  Level Estimated
Wed 06:48:00 AM 33.2392 25.1795 291° West  Level Estimated
Wed 06:49:00 AM 33.2742 25.0682 291° West  Level Estimated
Wed 06:50:00 AM 33.3092 24.9568 291° West  Level Estimated
Wed 06:51:00 AM 33.3440 24.8453 291° West  Level Estimated
Wed 06:52:00 AM 33.3787 24.7337 290° West  Level Estimated
Wed 06:53:00 AM 33.4134 24.6221 290° West  Level Estimated
Wed 06:54:00 AM 33.4479 24.5103 290° West  Level Estimated
Wed 06:54:12 AM 34.7130 22.6240 290° West 449 517 40,000  Level FlightAware ADS-B
Wed 06:54:57 AM 34.7340 22.5210 284° West 449 517 40,000  Level FlightAware ADS-B
Wed 06:55:37 AM 34.7510 22.4380 284° West 449 517 40,000  Level FlightAware ADS-B
Wed 06:56:17 AM 34.7680 22.3550 284° West 449 517 40,000  Level FlightAware ADS-B
Wed 06:56:57 AM 34.7850 22.2710 284° West 449 517 40,000  Level FlightAware ADS-B
Wed 06:57:37 AM 34.8020 22.1880 284° West 449 517 40,000  Level FlightAware ADS-B
Wed 06:58:27 AM 34.8240 22.0830 284° West 449 517 40,000  Level FlightAware ADS-B
Wed 06:59:07 AM 34.8730 21.8940 288° West 452 520 40,000  Level FlightAware ADS-B
Wed 06:59:47 AM 34.8950 21.7930 285° West 452 520 40,000  Level FlightAware ADS-B
Wed 07:00:32 AM 34.9160 21.6900 284° West 452 520 40,000  Level FlightAware ADS-B
Wed 07:01:12 AM 34.9330 21.6060 284° West 452 520 40,000  Level FlightAware ADS-B
Wed 07:01:52 AM 34.9510 21.5220 285° West 452 520 40,000  Level FlightAware ADS-B
Wed 07:02:32 AM 34.9680 21.4380 284° West 452 520 40,000  Level FlightAware ADS-B
Wed 07:03:12 AM 34.9850 21.3530 284° West 452 520 40,000  Level FlightAware ADS-B
Wed 07:04:02 AM 35.0060 21.2480 284° West 452 520 40,000  Level FlightAware ADS-B
Wed 07:04:42 AM 35.0240 21.1640 285° West 452 520 40,000  Level FlightAware ADS-B
Wed 07:05:22 AM 35.0410 21.0800 284° West 452 520 40,000  Level FlightAware ADS-B
Wed 07:06:02 AM 35.0580 20.9950 284° West 452 520 40,000  Level FlightAware ADS-B
Wed 07:06:42 AM 35.0750 20.9110 284° West 452 520 40,000  Level FlightAware ADS-B
Wed 07:07:32 AM 35.0970 20.8060 284° West 452 520 40,000  Level FlightAware ADS-B
Wed 07:08:27 AM 35.1600 20.5140 285° West 455 524 40,000  Level FlightAware ADS-B
Wed 07:09:07 AM 35.1820 20.4140 285° West 449 517 40,000  Level FlightAware ADS-B
Wed 07:09:52 AM 35.2000 20.3100 282° West 449 517 40,000  Level FlightAware ADS-B
Wed 07:10:32 AM 35.2150 20.2250 282° West 449 517 40,000  Level FlightAware ADS-B
Wed 07:11:12 AM 35.2300 20.1410 282° West 449 517 40,000  Level FlightAware ADS-B
Wed 07:11:52 AM 35.2440 20.0560 281° West 449 517 40,000  Level FlightAware ADS-B
Wed 07:12:32 AM 35.2590 19.9720 282° West 449 517 40,000  Level FlightAware ADS-B
Wed 07:13:22 AM 35.3080 19.7820 288° West 444 511 40,000  Level FlightAware ADS-B
Wed 07:14:17 AM 35.3340 19.6490 284° West 445 512 40,000  Level FlightAware ADS-B
Wed 07:14:57 AM 35.3510 19.5540 282° West 445 512 40,000  Level FlightAware ADS-B
Wed 07:15:37 AM 35.3650 19.4700 282° West 445 512 40,000  Level FlightAware ADS-B
Wed 07:16:17 AM 35.3800 19.3860 282° West 445 512 40,000  Level FlightAware ADS-B
Wed 07:17:17 AM 35.4210 19.2010 285° West 443 510 40,000  Level FlightAware ADS-B
Wed 07:18:02 AM 35.4390 19.1030 283° West 443 510 40,000  Level FlightAware ADS-B
Wed 07:18:42 AM 35.4550 19.0190 283° West 443 510 40,000  Level FlightAware ADS-B
Wed 07:19:22 AM 35.4780 18.8990 283° West 438 504 40,000  Level FlightAware ADS-B
Wed 07:20:22 AM 35.5030 18.7620 283° West 441 507 40,000  Level FlightAware ADS-B
Wed 07:21:02 AM 35.5210 18.6630 283° West 442 509 40,000  Level FlightAware ADS-B
Wed 07:21:37 AM 35.5390 18.5710 284° West 448 516 40,000  Level FlightAware ADS-B
Wed 07:22:27 AM 35.5610 18.4520 283° West 445 512 40,000  Level FlightAware ADS-B
Wed 07:23:07 AM 35.5800 18.3480 283° West 441 507 40,000  Level FlightAware ADS-B
Wed 07:23:52 AM 35.5980 18.2460 282° West 441 507 40,000  Level FlightAware ADS-B
Wed 07:24:32 AM 35.6170 18.1420 283° West 439 505 40,000  Level FlightAware ADS-B
Wed 07:25:12 AM 35.6350 18.0440 283° West 439 505 40,000  Level FlightAware ADS-B
Wed 07:25:57 AM 35.6540 17.9350 282° West 439 505 40,000  Level FlightAware ADS-B
Wed 07:26:32 AM 35.6690 17.8540 283° West 440 506 40,000  Level FlightAware ADS-B
Wed 07:27:22 AM 35.6920 17.7220 282° West 439 505 40,000  Level FlightAware ADS-B
Wed 07:28:02 AM 35.7100 17.6240 283° West 442 509 40,000  Level FlightAware ADS-B
Wed 07:28:42 AM 35.7270 17.5240 282° West 444 511 40,000  Level FlightAware ADS-B
Wed 07:29:27 AM 35.7460 17.4160 282° West 441 507 40,000  Level FlightAware ADS-B
Wed 07:30:07 AM 35.7630 17.3200 282° West 439 505 40,000  Level FlightAware ADS-B
Wed 07:30:52 AM 35.7820 17.2070 282° West 439 505 40,000  Level FlightAware ADS-B
Wed 07:31:32 AM 35.7990 17.1080 282° West 439 505 40,000  Level FlightAware ADS-B
Wed 07:32:17 AM 35.8180 16.9990 282° West 441 507 40,000  Level FlightAware ADS-B
Wed 07:32:57 AM 35.8350 16.9010 282° West 440 506 40,000  Level FlightAware ADS-B
Wed 07:33:37 AM 35.8510 16.8040 282° West 438 504 40,000  Level FlightAware ADS-B
Wed 07:34:22 AM 35.8690 16.6960 282° West 440 506 40,000  Level FlightAware ADS-B
Wed 07:35:07 AM 35.8880 16.5820 282° West 441 507 40,000  Level FlightAware ADS-B
Wed 07:35:47 AM 35.9050 16.4830 282° West 439 505 40,000  Level FlightAware ADS-B
Wed 07:36:27 AM 35.9200 16.3880 281° West 436 502 40,000  Level FlightAware ADS-B
Wed 07:37:12 AM 35.9380 16.2820 282° West 432 497 40,000  Level FlightAware ADS-B
Wed 07:37:52 AM 35.9540 16.1820 281° West 429 494 40,000  Level FlightAware ADS-B
Wed 07:38:32 AM 35.9700 16.0870 282° West 428 493 40,000  Level FlightAware ADS-B
Wed 07:39:17 AM 35.9870 15.9790 281° West 426 490 40,000  Level FlightAware ADS-B
Wed 07:39:57 AM 36.0030 15.8830 282° West 425 489 40,000  Level FlightAware ADS-B
Wed 07:40:42 AM 36.0200 15.7760 281° West 426 490 40,000  Level FlightAware ADS-B
Wed 07:41:22 AM 36.0340 15.6830 281° West 427 491 40,000  Level FlightAware ADS-B
Wed 07:42:02 AM 36.0500 15.5870 282° West 429 494 40,000  Level FlightAware ADS-B
Wed 07:42:47 AM 36.0670 15.4740 281° West 434 499 40,000  Level FlightAware ADS-B
Wed 07:43:27 AM 36.0830 15.3760 281° West 434 499 40,000  Level FlightAware ADS-B
Wed 07:44:07 AM 36.0980 15.2780 281° West 434 499 40,000  Level FlightAware ADS-B
Wed 07:44:52 AM 36.1140 15.1720 281° West 434 499 40,000  Level FlightAware ADS-B
Wed 07:45:32 AM 36.1290 15.0740 281° West 437 503 40,000  Level FlightAware ADS-B
Wed 07:46:17 AM 36.1460 14.9650 281° West 433 498 40,000  Level FlightAware ADS-B
Wed 07:46:57 AM 36.1610 14.8640 280° West 431 496 40,000  Level FlightAware ADS-B
Wed 07:47:42 AM 36.1770 14.7570 281° West 433 498 40,000  Level FlightAware ADS-B
Wed 07:48:22 AM 36.1920 14.6620 281° West 432 497 40,000  Level FlightAware ADS-B
Wed 07:49:02 AM 36.2060 14.5640 280° West 430 495 40,000  Level FlightAware ADS-B
Wed 07:49:47 AM 36.2230 14.4550 281° West 428 493 40,000  Level FlightAware ADS-B
Wed 07:50:27 AM 36.2370 14.3570 280° West 427 491 40,000  Level FlightAware ADS-B
Wed 07:51:12 AM 36.2530 14.2510 281° West 425 489 40,000  Level FlightAware ADS-B
Wed 07:51:52 AM 36.2670 14.1540 280° West 425 489 40,000  Level FlightAware ADS-B
Wed 07:52:32 AM 36.2800 14.0610 280° West 426 490 40,000  Level FlightAware ADS-B
Wed 07:53:12 AM 36.2940 13.9620 280° West 428 493 40,000  Level FlightAware ADS-B
Wed 07:53:57 AM 36.3100 13.8540 280° West 427 491 40,000  Level FlightAware ADS-B
Wed 07:54:37 AM 36.3230 13.7580 280° West 426 490 40,000  Level FlightAware ADS-B
Wed 07:55:22 AM 36.3390 13.6500 280° West 426 490 40,000  Level FlightAware ADS-B
Wed 07:56:07 AM 36.3540 13.5400 280° West 428 493 40,000  Level FlightAware ADS-B
Wed 07:56:47 AM 36.3670 13.4440 280° West 431 496 40,000  Level FlightAware ADS-B
Wed 07:57:27 AM 36.3810 13.3460 280° West 429 494 40,000  Level FlightAware ADS-B
Wed 07:58:12 AM 36.3950 13.2400 279° West 426 490 40,000  Level FlightAware ADS-B
Wed 07:58:52 AM 36.4090 13.1430 280° West 427 491 40,000  Level FlightAware ADS-B
Wed 07:59:37 AM 36.4240 13.0320 280° West 427 491 40,000  Level FlightAware ADS-B
Wed 08:00:12 AM 36.4340 12.9520 279° West 427 491 40,000  Level FlightAware ADS-B
Wed 08:00:57 AM 36.4500 12.8380 280° West 427 491 40,000  Level FlightAware ADS-B
Wed 08:01:42 AM 36.4630 12.7340 279° West 429 494 40,000 -141 Level FlightAware ADS-B
Wed 08:02:22 AM 36.4760 12.6360 279° West 428 493 39,800 -600 Descending FlightAware ADS-B
Wed 08:03:02 AM 36.4890 12.5390 279° West 432 497 39,200 -1,200 Descending FlightAware ADS-B
Wed 08:03:42 AM 36.5020 12.4410 279° West 425 489 38,200 -2,329 Descending FlightAware ADS-B
Wed 08:04:27 AM 36.5180 12.3320 280° West 423 487 35,900 -3,000 Descending FlightAware ADS-B
Wed 08:05:12 AM 36.5370 12.2270 283° West 425 489 33,700 -2,753 Descending FlightAware ADS-B
Wed 08:05:52 AM 36.5520 12.1350 281° West 432 497 32,000 -2,700 Descending FlightAware ADS-B
Wed 08:06:32 AM 36.5690 12.0330 282° West 433 498 30,100 -2,894 Descending FlightAware ADS-B
Wed 08:07:17 AM 36.5870 11.9240 282° West 421 484 27,900 -2,894 Descending FlightAware ADS-B
Wed 08:07:57 AM 36.6020 11.8290 281° West 419 482 26,000 -2,612 Descending FlightAware ADS-B
Wed 08:08:42 AM 36.6190 11.7270 282° West 407 468 24,200 -2,471 Descending FlightAware ADS-B
Wed 08:09:22 AM 36.6340 11.6340 281° West 401 461 22,500 -2,541 Descending FlightAware ADS-B
Wed 08:10:07 AM 36.6510 11.5300 282° West 391 450 20,600 -2,329 Descending FlightAware ADS-B
Wed 08:10:47 AM 36.6640 11.4450 281° West 380 437 19,200 -2,250 Descending FlightAware ADS-B
Wed 08:11:27 AM 36.6780 11.3590 281° West 375 432 17,600 -2,400 Descending FlightAware ADS-B
Wed 08:12:07 AM 36.6920 11.2740 282° West 371 427 16,000 -2,259 Descending FlightAware ADS-B
Wed 08:12:52 AM 36.7070 11.1840 282° West 365 420 14,400 -2,118 Descending FlightAware ADS-B
Wed 08:13:32 AM 36.7200 11.1000 281° West 359 413 13,000 -1,412 Descending FlightAware ADS-B
Wed 08:14:17 AM 36.7340 11.0140 282° West 322 371 12,400 -847 Descending FlightAware ADS-B
Wed 08:14:57 AM 36.7450 10.9450 281° West 282 325 11,800 -1,425 Descending FlightAware ADS-B
Wed 08:15:37 AM 36.7550 10.8830 281° West 272 313 10,500 -2,057 Descending FlightAware ADS-B
Wed 08:16:07 AM 36.7620 10.8390 281° West 272 313 9,400 -2,400 Descending FlightAware ADS-B
Wed 08:16:32 AM 36.7690 10.8000 283° West 275 316 8,300 -2,073 Descending FlightAware ADS-B
Wed 08:17:02 AM 36.7760 10.7540 281° West 263 303 7,500 -1,900 Descending FlightAware ADS-B
Wed 08:17:32 AM 36.7840 10.7100 283° West 254 292 6,400 -2,182 Descending FlightAware ADS-B
Wed 08:17:57 AM 36.7910 10.6730 283° West 251 289 5,500 -1,855 Descending FlightAware ADS-B
Wed 08:18:27 AM 36.7980 10.6340 283° West 248 285 4,700 -1,500 Descending FlightAware ADS-B
Wed 08:18:37 AM 36.7990 10.6200 275° West 250 288 4,500 -1,350 Descending FlightAware ADS-B
Wed 08:19:07 AM 36.7910 10.5760 257° West 245 282 3,800 -1,309 Descending FlightAware ADS-B
Wed 08:19:32 AM 36.7840 10.5430 255° West 240 276 3,300 -764 Descending FlightAware ADS-B
Wed 08:20:02 AM 36.7750 10.5060 253° West 211 243 3,100 -267 Descending FlightAware ADS-B
Wed 08:20:17 AM 36.7710 10.4880 254° West 195 224 3,100 -92 Level FlightAware ADS-B
Wed 08:21:07 AM 36.7780 10.4450 282° West 177 204 3,000 -282 Descending FlightAware ADS-B
Wed 08:21:42 AM 36.7900 10.4100 293° West 163 188 2,700 -700 Descending FlightAware ADS-B
Wed 08:22:07 AM 36.7970 10.3900 294° West 163 188 2,300 -923 Descending FlightAware ADS-B
Wed 08:22:47 AM 36.8080 10.3550 291° West 145 167 1,700 -706 Descending FlightAware ADS-B
Wed 08:23:32 AM 36.8170 10.3280 293° West 137 158 1,300 -640 Descending FlightAware ADS-B
Wed 08:24:02 AM 36.8260 10.3030 294° West 135 155 900 -686 Descending FlightAware ADS-B
Wed 08:24:07 AM 36.8270 10.2990 287° West 135 155 900 -750 Level FlightAware ADS-B
Wed 08:24:42 AM 36.8360 10.2720 293° West 136 157 400 -462 Descending FlightAware ADS-B
Wed 08:25:12 AM 36.8430 10.2530 295° West 136 157 400  Level FlightAware ADS-B
Wed 08:25:17 AM 36.8370 10.2690 115° Southeast 137 158 -4,800 Descending FlightAware ADS-B

Login

Don't have an account? Register now (free) for customized features, flight alerts, and more!